• Join FlightAware (Why Join?)
  • Login
  • US Flag 
06:56PM EDT


 

Airport Tracker/Info


-or-


 

Live Flight TrackerFlight Track Log ✈ PDT4236 ✈ 23-May-2013 ✈ KHTS - KCLT

Flight Track Log - Related Links

Times and Time Zones

All times are in EDT time to prevent confusion due to time zone crossing. See the PDT4236 flight status page for this flight to view local times or setup timezone preferences in your user account.

Time Position Orientation Groundspeed Altitude Reporting Facility
EDT Latitude Longitude Course Direction KTS MPH feet Rate Location/Type
04:03PM 38.2883 -82.5844 166° South 186 214 5,000  Level Indianapolis Center
04:04PM 38.1338 -82.5024 174° South  Level FlightAware Approximate
04:04PM 38.2481 -82.5975 194° South 158 182 6,500  Level Indianapolis Center
04:05PM 38.0759 -82.4883 167° South  Level FlightAware Approximate
04:05PM 38.2058 -82.6139 197° South 167 192 7,700  Level Indianapolis Center
04:06PM 38.0183 -82.4719 167° South  Level FlightAware Approximate
04:06PM 38.1569 -82.6158 182° South 174 200 9,600  Level Indianapolis Center
04:07PM 37.9554 -82.4611 171° South  Level FlightAware Approximate
04:07PM 38.1114 -82.6036 168° South 166 191 10,900  Level Indianapolis Center
04:08PM 38.0536 -82.5881 168° South 178 205 12,500 1,320 Climbing Indianapolis Center
04:09PM 38.0031 -82.5733 167° South 183 211 13,700 1,020 Climbing Indianapolis Center
04:10PM 37.9536 -82.5581 166° South 182 209 14,700 660 Climbing Indianapolis Center
04:11PM 37.9008 -82.5439 168° South 191 220 15,100 180 Climbing Indianapolis Center
04:12PM 37.8378 -82.5247 167° South 224 258 15,100 240 Level Indianapolis Center
04:13PM 37.7783 -82.4961 159° South 229 264 15,600 600 Climbing Indianapolis Center
04:14PM 37.7186 -82.4331 140° Southeast 236 272 16,400 600 Climbing Indianapolis Center
04:15PM 37.6700 -82.3828 141° Southeast 228 262 16,900 300 Climbing Indianapolis Center
04:16PM 37.6194 -82.3306 141° Southeast 234 269 17,100 60 Climbing Indianapolis Center
04:17PM 37.5636 -82.2781 143° Southeast 248 285 17,100 -60 Level Indianapolis Center
04:18PM 37.5069 -82.2233 143° Southeast 255 293 17,000 -60 Descending Indianapolis Center
04:20PM 37.4436 -82.1747 149° Southeast 263 303 17,000  Level Indianapolis Center
04:21PM 37.3689 -82.1194 150° Southeast 264 304 17,000  Level Indianapolis Center
04:22PM 37.3011 -82.0828 157° South 265 305 17,000  Level Indianapolis Center
04:23PM 37.2325 -82.0469 157° South 268 308 17,000  Level Indianapolis Center
04:24PM 37.1714 -81.9894 143° Southeast 274 315 17,000  Level Indianapolis Center
04:25PM 37.1139 -81.9250 138° Southeast 276 318 17,100  Climbing Indianapolis Center
04:26PM 37.0561 -81.8631 139° Southeast 272 313 17,000 -60 Descending Indianapolis Center
04:27PM 36.9783 -81.8175 155° Southeast 263 303 17,000 -360 Level Indianapolis Center
04:28PM 36.9033 -81.8167 179° South 265 305 16,300 -720 Descending Indianapolis Center
04:28PM 36.8492 -81.8078 173° South 276 318 15,800 -780 Descending Atlanta Center
04:29PM 36.7697 -81.7869 168° South 283 326 15,000 -660 Descending Atlanta Center
04:30PM 36.6900 -81.7711 171° South 295 339 14,500 -540 Descending Atlanta Center
04:31PM 36.6106 -81.7578 172° South 295 339 14,000 -540 Descending Atlanta Center
04:32PM 36.5331 -81.7444 172° South 295 339 13,500 -540 Descending Atlanta Center
04:33PM 36.4558 -81.7311 172° South 290 334 13,000 -540 Descending Atlanta Center
04:34PM 36.3783 -81.7178 172° South 290 334 12,500 -540 Descending Atlanta Center
04:35PM 36.2989 -81.7047 172° South 290 334 12,000 -600 Descending Atlanta Center
04:36PM 36.2236 -81.6914 172° South 290 334 11,400 -540 Descending Atlanta Center
04:37PM 36.1525 -81.6808 173° South 290 334 11,000 -480 Descending Atlanta Center
04:38PM 36.0792 -81.6675 172° South 283 326 10,500 -540 Descending Atlanta Center
04:39PM 36.0017 -81.6569 174° South 278 320 10,000 -540 Descending Atlanta Center
04:40PM 35.9264 -81.6436 172° South 278 320 9,500 -540 Descending Atlanta Center
04:41PM 35.8636 -81.6275 168° South 280 322 9,100 -540 Descending Atlanta Center
04:41PM 35.8508 -81.6203 155° Southeast 278 320 9,000 -120 Descending Atlanta Center
04:42PM 35.7733 -81.6072 172° South 265 305 9,000  Level Atlanta Center
04:43PM 35.7044 -81.6042 178° South 254 292 9,000  Level Atlanta Center
04:44PM 35.6369 -81.5678 156° South 261 300 9,000  Level Atlanta Center
04:45PM 35.5717 -81.5264 153° Southeast 267 307 9,000 -540 Level Atlanta Center
04:46PM 35.5569 -81.4325 101° East 277 319 8,000 -1,020 Descending Atlanta Center
04:47PM 35.5614 -81.3481 86° East 283 326 7,100 -540 Descending Atlanta Center
04:48PM 35.5675 -81.2406 86° East 268 308 7,000 -60 Descending Atlanta Center
04:49PM 35.5489 -81.1544 105° East 276 318 7,000  Level Atlanta Center
04:49PM 35.5489 -81.1544 105° East 272 313 7,000  Level Atlanta Center
04:50PM 35.5300 -81.0708 105° East 266 306 7,000 -480 Level Atlanta Center
04:51PM 35.4950 -81.0058 123° Southeast 204 235 6,100 -1,020 Descending Atlanta Center
04:53PM 35.4425 -80.9872 164° South 195 224 5,000 -1,140 Descending Atlanta Center
04:54PM 35.3881 -80.9842 177° South 192 221 3,900 -1,140 Descending Atlanta Center